createdAt,value
2023-05-12T00:01:24.899Z,15.45
2023-05-12T00:03:57.795Z,15.45
2023-05-12T00:06:31.480Z,15.43
2023-05-12T00:09:06.264Z,15.43
2023-05-12T00:11:39.009Z,15.45
2023-05-12T00:14:11.728Z,15.44
2023-05-12T00:16:44.883Z,15.48
2023-05-12T00:19:18.103Z,15.50
2023-05-12T00:21:51.113Z,15.51
2023-05-12T00:24:25.225Z,15.52
2023-05-12T00:26:57.898Z,15.54
2023-05-12T00:29:30.608Z,15.56
2023-05-12T00:32:03.511Z,15.57
2023-05-12T00:34:36.499Z,15.59
2023-05-12T00:37:09.259Z,15.61
2023-05-12T00:39:43.646Z,15.62
2023-05-12T00:42:16.301Z,15.63
2023-05-12T00:44:49.018Z,15.63
2023-05-12T00:47:22.435Z,15.65
2023-05-12T00:49:55.289Z,15.67
2023-05-12T00:52:28.920Z,15.67
2023-05-12T00:55:05.230Z,15.69
2023-05-12T00:57:38.006Z,15.69
2023-05-12T01:00:11.085Z,15.69
2023-05-12T01:02:43.940Z,15.71
2023-05-12T01:05:16.894Z,15.71
2023-05-12T01:07:50.083Z,15.72
2023-05-12T01:10:24.103Z,15.73
2023-05-12T01:12:56.812Z,15.72
2023-05-12T01:15:31.069Z,15.71
2023-05-12T01:18:06.321Z,15.71
2023-05-12T01:20:39.458Z,15.73
2023-05-12T01:23:13.613Z,15.71
2023-05-12T01:25:50.247Z,15.71
2023-05-12T01:28:24.440Z,15.70
2023-05-12T01:30:57.495Z,15.71
2023-05-12T01:33:30.273Z,15.71
2023-05-12T01:36:03.392Z,15.73
2023-05-12T01:38:36.040Z,15.73
2023-05-12T01:41:08.821Z,15.73
2023-05-12T01:43:42.963Z,15.73
2023-05-12T01:46:15.861Z,15.73
2023-05-12T01:48:48.585Z,15.74
2023-05-12T01:51:21.234Z,15.71
2023-05-12T01:53:54.038Z,15.73
2023-05-12T01:56:26.771Z,15.71
2023-05-12T01:59:00.946Z,15.70
2023-05-12T02:01:33.750Z,15.69
2023-05-12T02:04:08.857Z,15.67
2023-05-12T02:06:41.879Z,15.65
2023-05-12T02:09:14.642Z,15.64
2023-05-12T02:11:47.365Z,15.62
2023-05-12T02:14:21.427Z,15.58
2023-05-12T02:16:55.478Z,15.56
2023-05-12T02:19:28.475Z,15.54
2023-05-12T02:22:01.254Z,15.49
2023-05-12T02:24:33.961Z,15.46
2023-05-12T02:27:06.920Z,15.44
2023-05-12T02:29:42.084Z,15.41
2023-05-12T02:32:14.848Z,15.36
2023-05-12T02:34:47.610Z,15.34
2023-05-12T02:37:20.430Z,15.31
2023-05-12T02:39:53.098Z,15.30
2023-05-12T02:42:28.955Z,15.31
2023-05-12T02:45:03.398Z,15.28
2023-05-12T02:47:36.476Z,15.30
2023-05-12T02:50:10.281Z,15.31
2023-05-12T02:52:43.002Z,15.32
2023-05-12T02:55:15.737Z,15.35
2023-05-12T02:57:48.458Z,15.37
2023-05-12T03:00:22.690Z,15.39
2023-05-12T03:02:55.615Z,15.41
2023-05-12T03:05:28.421Z,15.44
2023-05-12T03:08:01.349Z,15.45
2023-05-12T03:10:34.236Z,15.46
2023-05-12T03:13:07.037Z,15.49
2023-05-12T03:15:41.076Z,15.49
2023-05-12T03:18:13.782Z,15.51
2023-05-12T03:20:47.078Z,15.53
2023-05-12T03:23:19.915Z,15.51
2023-05-12T03:25:52.858Z,15.53
2023-05-12T03:28:25.673Z,15.54
2023-05-12T03:30:59.777Z,15.53
2023-05-12T03:33:32.695Z,15.56
2023-05-12T03:36:05.846Z,15.55
2023-05-12T03:38:38.679Z,15.56
2023-05-12T03:41:11.330Z,15.56
2023-05-12T03:43:44.102Z,15.58
2023-05-12T03:46:18.358Z,15.59
2023-05-12T03:48:51.069Z,15.61
2023-05-12T03:51:23.700Z,15.62
2023-05-12T03:53:56.451Z,15.63
2023-05-12T03:56:29.672Z,15.64
2023-05-12T03:59:02.433Z,15.65
2023-05-12T04:01:36.917Z,15.66
2023-05-12T04:04:09.817Z,15.68
2023-05-12T04:06:42.660Z,15.69
2023-05-12T04:09:16.310Z,15.69
2023-05-12T04:11:48.990Z,15.71
2023-05-12T04:14:29.016Z,15.70
2023-05-12T04:17:09.704Z,15.70
2023-05-12T04:19:42.463Z,15.68
2023-05-12T04:22:15.118Z,15.66
2023-05-12T04:24:47.882Z,15.64
2023-05-12T04:27:20.559Z,15.64
2023-05-12T04:29:53.301Z,15.61
2023-05-12T04:32:27.341Z,15.60
2023-05-12T04:35:00.166Z,15.59
2023-05-12T04:37:32.828Z,15.57
2023-05-12T04:40:07.287Z,15.54
2023-05-12T04:42:40.012Z,15.52
2023-05-12T04:45:13.123Z,15.51
2023-05-12T04:47:47.204Z,15.51
2023-05-12T04:50:20.157Z,15.50
2023-05-12T04:52:52.819Z,15.51
2023-05-12T04:55:25.835Z,15.56
2023-05-12T04:57:58.585Z,15.60
2023-05-12T05:00:31.298Z,15.61
2023-05-12T05:03:05.774Z,15.67
2023-05-12T05:05:38.650Z,15.73
2023-05-12T05:08:11.368Z,15.78
2023-05-12T05:10:44.043Z,15.85
2023-05-12T05:13:16.946Z,15.93
2023-05-12T05:15:53.150Z,16.01
2023-05-12T05:18:27.453Z,16.11
2023-05-12T05:21:00.374Z,16.19
2023-05-12T05:23:33.230Z,16.28
2023-05-12T05:26:06.195Z,16.39
2023-05-12T05:28:40.067Z,16.51
2023-05-12T05:31:16.161Z,16.63
2023-05-12T05:33:50.283Z,16.78
2023-05-12T05:36:23.503Z,16.89
2023-05-12T05:38:56.157Z,17.00
2023-05-12T05:41:28.817Z,17.07
2023-05-12T05:44:01.648Z,17.09
2023-05-12T05:46:34.734Z,17.07
2023-05-12T05:49:08.890Z,17.06
2023-05-12T05:51:41.608Z,17.05
2023-05-12T05:54:14.262Z,17.06
2023-05-12T05:56:46.989Z,17.11
2023-05-12T05:59:19.702Z,17.23
2023-05-12T06:01:52.429Z,17.38
2023-05-12T06:04:27.042Z,17.56
2023-05-12T06:06:59.737Z,17.76
2023-05-12T06:09:32.422Z,18.03
2023-05-12T06:12:05.328Z,18.34
2023-05-12T06:14:38.039Z,18.72
2023-05-12T06:17:11.057Z,19.11
2023-05-12T06:19:47.997Z,19.49
2023-05-12T06:22:20.747Z,19.81
2023-05-12T06:24:53.582Z,20.04
2023-05-12T06:27:26.284Z,20.24
2023-05-12T06:29:58.920Z,20.42
2023-05-12T06:32:31.767Z,20.59
2023-05-12T06:35:06.781Z,20.72
2023-05-12T06:37:39.598Z,20.81
2023-05-12T06:40:12.402Z,20.87
2023-05-12T06:42:45.062Z,20.86
2023-05-12T06:45:19.044Z,20.82
2023-05-12T06:47:52.015Z,20.76
2023-05-12T06:50:26.289Z,20.69
2023-05-12T06:52:59.065Z,20.61
2023-05-12T06:55:31.770Z,20.54
2023-05-12T06:58:04.629Z,20.51
2023-05-12T07:00:37.321Z,20.49
2023-05-12T07:03:12.270Z,20.47
2023-05-12T07:05:46.399Z,20.47
2023-05-12T07:08:19.150Z,20.48
2023-05-12T07:10:51.887Z,20.48
2023-05-12T07:13:25.260Z,20.47
2023-05-12T07:15:57.938Z,20.48
2023-05-12T07:18:32.088Z,20.52
2023-05-12T07:21:06.390Z,20.57
2023-05-12T07:23:39.168Z,20.62
2023-05-12T07:26:11.879Z,20.68
2023-05-12T07:28:45.218Z,20.73
2023-05-12T07:31:18.001Z,20.82
2023-05-12T07:33:50.761Z,20.85
2023-05-12T07:36:25.020Z,20.86
2023-05-12T07:38:57.903Z,20.87
2023-05-12T07:41:32.511Z,20.91
2023-05-12T07:44:06.021Z,20.96
2023-05-12T07:46:38.726Z,21.01
2023-05-12T07:49:11.567Z,21.06
2023-05-12T07:51:45.833Z,21.13
2023-05-12T07:54:18.577Z,21.20
2023-05-12T07:56:51.604Z,21.28
2023-05-12T07:59:24.323Z,21.33
2023-05-12T08:01:57.018Z,21.37
2023-05-12T08:04:29.793Z,21.40
2023-05-12T08:07:03.922Z,21.39
2023-05-12T08:09:36.638Z,21.37
2023-05-12T08:12:09.565Z,21.36
2023-05-12T08:14:42.242Z,21.35
2023-05-12T08:17:14.985Z,21.34
2023-05-12T08:19:47.834Z,21.34
2023-05-12T08:22:21.924Z,21.34
2023-05-12T08:24:54.617Z,21.35
2023-05-12T08:27:27.296Z,21.34
2023-05-12T08:29:59.986Z,21.33
2023-05-12T08:32:33.157Z,21.31
2023-05-12T08:35:06.438Z,21.31
2023-05-12T08:37:40.546Z,21.31
2023-05-12T08:40:17.940Z,21.30
2023-05-12T08:42:55.857Z,21.28
2023-05-12T08:45:29.336Z,21.27
2023-05-12T08:48:02.332Z,21.26
2023-05-12T08:50:36.692Z,21.23
2023-05-12T08:53:11.865Z,21.25
2023-05-12T08:55:54.402Z,21.29
2023-05-12T08:58:41.654Z,21.33
2023-05-12T09:01:16.162Z,21.36
2023-05-12T09:03:49.106Z,21.41
2023-05-12T09:06:21.802Z,21.49
2023-05-12T09:08:56.134Z,21.57
2023-05-12T09:11:29.095Z,21.67
2023-05-12T09:14:02.931Z,21.76
2023-05-12T09:16:39.110Z,21.85
2023-05-12T09:19:11.991Z,21.91
2023-05-12T09:21:45.183Z,21.93
2023-05-12T09:24:19.294Z,21.88
2023-05-12T09:26:52.772Z,21.84
2023-05-12T09:29:31.752Z,21.77
2023-05-12T09:32:06.369Z,21.69
2023-05-12T09:34:41.349Z,21.66
2023-05-12T09:37:15.849Z,21.61
2023-05-12T09:39:59.739Z,21.60
2023-05-12T09:42:33.296Z,21.59
2023-05-12T09:45:06.450Z,21.57
2023-05-12T09:47:40.049Z,21.58
2023-05-12T09:50:12.824Z,21.56
2023-05-12T09:52:45.530Z,21.59
2023-05-12T09:55:20.108Z,21.62
2023-05-12T09:57:53.787Z,21.69
2023-05-12T10:00:51.948Z,21.75
2023-05-12T10:03:22.195Z,21.80
2023-05-12T10:05:58.844Z,21.86
2023-05-12T10:08:33.738Z,21.89
2023-05-12T10:11:08.316Z,21.97
2023-05-12T10:13:41.639Z,22.06
2023-05-12T10:16:15.223Z,22.17
2023-05-12T10:18:48.845Z,22.30
2023-05-12T10:21:22.826Z,22.39
2023-05-12T10:23:55.932Z,22.49
2023-05-12T10:26:30.323Z,22.59
2023-05-12T10:29:03.282Z,22.66
2023-05-12T10:31:36.597Z,22.72
2023-05-12T10:34:17.086Z,22.76
2023-05-12T10:36:50.484Z,22.83
2023-05-12T10:39:28.763Z,22.89
2023-05-12T10:42:04.926Z,22.97
2023-05-12T10:44:38.102Z,23.03
2023-05-12T10:47:14.274Z,23.10
2023-05-12T10:49:46.968Z,23.13
2023-05-12T10:52:21.306Z,23.17
2023-05-12T10:55:01.360Z,23.22
2023-05-12T10:57:36.529Z,23.24
2023-05-12T11:00:13.958Z,23.24
2023-05-12T11:02:52.345Z,23.22
2023-05-12T11:05:35.235Z,23.20
2023-05-12T11:08:09.480Z,23.15
2023-05-12T11:10:42.664Z,23.16
2023-05-12T11:13:17.230Z,23.13
2023-05-12T11:15:51.140Z,23.14
2023-05-12T11:18:24.374Z,23.13
2023-05-12T11:20:57.160Z,23.13
2023-05-12T11:23:31.433Z,23.15
2023-05-12T11:26:04.990Z,23.16
2023-05-12T11:28:42.477Z,23.16
2023-05-12T11:31:19.026Z,23.19
2023-05-12T11:34:04.612Z,23.18
2023-05-12T11:36:46.635Z,23.17
2023-05-12T11:39:20.854Z,23.15
2023-05-12T11:42:02.130Z,23.14
2023-05-12T11:44:47.650Z,23.16
2023-05-12T11:47:20.838Z,23.22
2023-05-12T11:49:54.776Z,23.30
2023-05-12T11:52:28.319Z,23.39
2023-05-12T11:55:01.396Z,23.46
2023-05-12T11:57:35.094Z,23.56
2023-05-12T12:00:10.313Z,23.65
2023-05-12T12:02:43.920Z,23.77
2023-05-12T12:05:21.246Z,23.81
2023-05-12T12:08:05.364Z,23.88
2023-05-12T12:10:38.185Z,23.95
2023-05-12T12:13:11.140Z,24.01
2023-05-12T12:15:45.441Z,24.06
2023-05-12T12:18:19.068Z,24.12
2023-05-12T12:20:53.131Z,24.20
2023-05-12T12:23:25.997Z,24.23
2023-05-12T12:25:58.650Z,24.24
2023-05-12T12:28:31.563Z,24.24
2023-05-12T12:31:05.880Z,24.20
2023-05-12T12:33:38.762Z,24.13
2023-05-12T12:36:11.447Z,24.05
2023-05-12T12:38:44.126Z,23.93
2023-05-12T12:41:17.401Z,23.78
2023-05-12T12:43:50.430Z,23.62
2023-05-12T12:46:24.547Z,23.43
2023-05-12T12:48:58.261Z,23.25
2023-05-12T12:51:44.658Z,23.06
2023-05-12T12:54:18.693Z,22.84
2023-05-12T12:56:51.417Z,22.69
2023-05-12T12:59:24.476Z,22.52
2023-05-12T13:02:00.172Z,22.37
2023-05-12T13:04:32.966Z,22.28
2023-05-12T13:07:06.037Z,22.18
2023-05-12T13:09:38.729Z,22.13
2023-05-12T13:12:11.441Z,22.06
2023-05-12T13:14:44.238Z,22.01
2023-05-12T13:17:19.047Z,21.95
2023-05-12T13:19:52.767Z,21.91
2023-05-12T13:22:27.514Z,21.89
2023-05-12T13:25:00.298Z,21.87
2023-05-12T13:27:33.471Z,21.85
2023-05-12T13:30:07.517Z,21.83
2023-05-12T13:32:42.203Z,21.80
2023-05-12T13:35:14.966Z,21.75
2023-05-12T13:37:47.748Z,21.70
2023-05-12T13:40:20.563Z,21.61
2023-05-12T13:42:53.168Z,21.51
2023-05-12T13:45:26.485Z,21.43
2023-05-12T13:48:00.703Z,21.34
2023-05-12T13:50:33.798Z,21.31
2023-05-12T13:53:06.661Z,21.30
2023-05-12T13:55:40.863Z,21.27
2023-05-12T13:58:13.865Z,21.29
2023-05-12T14:00:48.080Z,21.31
2023-05-12T14:03:22.133Z,21.33
2023-05-12T14:05:54.844Z,21.38
2023-05-12T14:08:27.498Z,21.46
2023-05-12T14:11:00.594Z,21.59
2023-05-12T14:13:33.269Z,21.69
2023-05-12T14:16:06.405Z,21.82
2023-05-12T14:18:43.245Z,21.94
2023-05-12T14:21:16.319Z,22.04
2023-05-12T14:23:51.137Z,22.11
2023-05-12T14:26:25.686Z,22.18
2023-05-12T14:28:58.376Z,22.22
2023-05-12T14:31:31.198Z,22.25
2023-05-12T14:34:05.840Z,22.26
2023-05-12T14:36:38.594Z,22.27
2023-05-12T14:39:11.576Z,22.28
2023-05-12T14:41:44.555Z,22.32
2023-05-12T14:44:17.273Z,22.34
2023-05-12T14:46:50.208Z,22.37
2023-05-12T14:49:24.583Z,22.42
2023-05-12T14:51:57.574Z,22.50
2023-05-12T14:54:30.315Z,22.55
2023-05-12T14:57:03.684Z,22.64
2023-05-12T14:59:36.385Z,22.72
2023-05-12T15:02:09.153Z,22.79
2023-05-12T15:04:43.795Z,22.86
2023-05-12T15:07:16.690Z,22.90
2023-05-12T15:09:49.458Z,22.91
2023-05-12T15:12:22.323Z,22.89
2023-05-12T15:14:56.002Z,22.84
2023-05-12T15:17:30.715Z,22.76
2023-05-12T15:20:05.558Z,22.67
2023-05-12T15:22:38.383Z,22.64
2023-05-12T15:25:11.645Z,22.56
2023-05-12T15:27:44.696Z,22.49
2023-05-12T15:30:17.485Z,22.45
2023-05-12T15:32:50.199Z,22.40
2023-05-12T15:35:24.242Z,22.38
2023-05-12T15:37:56.931Z,22.39
2023-05-12T15:40:31.012Z,22.37
2023-05-12T15:43:05.039Z,22.39
2023-05-12T15:45:38.338Z,22.38
2023-05-12T15:48:11.674Z,22.40
2023-05-12T15:50:45.801Z,22.41
2023-05-12T15:53:18.660Z,22.41
2023-05-12T15:55:59.733Z,22.38
2023-05-12T15:58:32.774Z,22.34
2023-05-12T16:01:05.541Z,22.27
2023-05-12T16:03:38.735Z,22.15
2023-05-12T16:06:13.300Z,22.04
2023-05-12T16:08:46.064Z,21.94
2023-05-12T16:11:18.747Z,21.80
2023-05-12T16:13:53.030Z,21.68
2023-05-12T16:16:25.731Z,21.56
2023-05-12T16:18:58.632Z,21.43
2023-05-12T16:21:33.244Z,21.32
2023-05-12T16:24:08.295Z,21.20
2023-05-12T16:26:42.012Z,21.10
2023-05-12T16:29:14.891Z,21.01
2023-05-12T16:31:47.600Z,20.93
2023-05-12T16:34:20.478Z,20.86
2023-05-12T16:36:54.557Z,20.83
2023-05-12T16:39:27.321Z,20.78
2023-05-12T16:42:00.481Z,20.76
2023-05-12T16:44:33.254Z,20.73
2023-05-12T16:47:06.179Z,20.72
2023-05-12T16:49:39.159Z,20.73
2023-05-12T16:52:14.834Z,20.75
2023-05-12T16:54:47.650Z,20.79
2023-05-12T16:57:21.014Z,20.81
2023-05-12T16:59:54.067Z,20.85
2023-05-12T17:02:26.786Z,20.85
2023-05-12T17:04:59.581Z,20.83
2023-05-12T17:07:35.290Z,20.79
2023-05-12T17:10:08.327Z,20.73
2023-05-12T17:12:40.985Z,20.64
2023-05-12T17:15:13.729Z,20.52
2023-05-12T17:17:46.795Z,20.39
2023-05-12T17:20:19.645Z,20.27
2023-05-12T17:22:53.861Z,20.17
2023-05-12T17:25:29.640Z,20.08
2023-05-12T17:28:02.394Z,20.01
2023-05-12T17:30:35.185Z,19.94
2023-05-12T17:33:08.814Z,19.88
2023-05-12T17:35:41.775Z,19.81
2023-05-12T17:38:16.372Z,19.76
2023-05-12T17:40:49.023Z,19.69
2023-05-12T17:43:22.554Z,19.62
2023-05-12T17:45:55.289Z,19.55
2023-05-12T17:48:31.050Z,19.47
2023-05-12T17:51:04.251Z,19.39
2023-05-12T17:53:38.445Z,19.29
2023-05-12T17:56:11.625Z,19.20
2023-05-12T17:58:44.375Z,19.11
2023-05-12T18:01:17.104Z,19.01
2023-05-12T18:03:49.879Z,18.90
2023-05-12T18:06:22.597Z,18.81
2023-05-12T18:08:57.013Z,18.71
2023-05-12T18:11:29.815Z,18.62
2023-05-12T18:14:05.873Z,18.54
2023-05-12T18:16:39.122Z,18.44
2023-05-12T18:19:11.787Z,18.36
2023-05-12T18:21:44.630Z,18.26
2023-05-12T18:24:18.652Z,18.18
2023-05-12T18:26:51.370Z,18.10
2023-05-12T18:29:24.010Z,18.02
2023-05-12T18:31:56.962Z,17.94
2023-05-12T18:34:30.154Z,17.87
2023-05-12T18:37:03.165Z,17.81
2023-05-12T18:39:37.236Z,17.73
2023-05-12T18:42:10.402Z,17.67
2023-05-12T18:44:43.117Z,17.61
2023-05-12T18:47:15.806Z,17.56
2023-05-12T18:49:48.445Z,17.48
2023-05-12T18:52:21.907Z,17.44
2023-05-12T18:54:56.099Z,17.39
2023-05-12T18:57:28.847Z,17.32
2023-05-12T19:00:01.543Z,17.27
2023-05-12T19:02:34.703Z,17.22
2023-05-12T19:05:07.955Z,17.18
2023-05-12T19:07:40.636Z,17.11
2023-05-12T19:10:14.784Z,17.05
2023-05-12T19:12:48.124Z,17.01
2023-05-12T19:15:21.148Z,16.94
2023-05-12T19:17:54.371Z,16.90
2023-05-12T19:20:28.128Z,16.84
2023-05-12T19:23:01.401Z,16.80
2023-05-12T19:25:35.779Z,16.73
2023-05-12T19:28:11.999Z,16.69
2023-05-12T19:30:44.749Z,16.61
2023-05-12T19:33:17.695Z,16.55
2023-05-12T19:35:50.409Z,16.49
2023-05-12T19:38:23.869Z,16.44
2023-05-12T19:40:57.919Z,16.41
2023-05-12T19:43:30.613Z,16.40
2023-05-12T19:46:03.414Z,16.35
2023-05-12T19:48:36.136Z,16.35
2023-05-12T19:51:09.071Z,16.31
2023-05-12T19:53:43.275Z,16.31
2023-05-12T19:56:18.789Z,16.25
2023-05-12T19:58:52.337Z,16.22
2023-05-12T20:01:25.117Z,16.15
2023-05-12T20:03:57.886Z,16.11
2023-05-12T20:06:31.769Z,16.04
2023-05-12T20:09:04.623Z,15.97
2023-05-12T20:11:38.632Z,15.91
2023-05-12T20:14:11.301Z,15.87
2023-05-12T20:16:44.018Z,15.80
2023-05-12T20:19:17.010Z,15.73
2023-05-12T20:21:49.721Z,15.67
2023-05-12T20:24:22.827Z,15.62
2023-05-12T20:26:56.911Z,15.58
2023-05-12T20:29:30.361Z,15.52
2023-05-12T20:32:03.083Z,15.49
2023-05-12T20:34:36.142Z,15.45
2023-05-12T20:37:08.837Z,15.42
2023-05-12T20:39:41.652Z,15.37
2023-05-12T20:42:15.757Z,15.34
2023-05-12T20:44:48.580Z,15.32
2023-05-12T20:47:21.311Z,15.30
2023-05-12T20:49:56.083Z,15.28
2023-05-12T20:52:29.444Z,15.26
2023-05-12T20:55:02.208Z,15.23
2023-05-12T20:57:37.768Z,15.20
2023-05-12T21:00:11.731Z,15.16
2023-05-12T21:02:44.449Z,15.13
2023-05-12T21:05:17.203Z,15.07
2023-05-12T21:07:49.910Z,15.04
2023-05-12T21:10:23.057Z,15.02
2023-05-12T21:12:57.337Z,14.99
2023-05-12T21:15:30.064Z,14.95
2023-05-12T21:18:02.881Z,14.93
2023-05-12T21:20:35.644Z,14.89
2023-05-12T21:23:11.425Z,14.84
2023-05-12T21:25:44.130Z,14.78
2023-05-12T21:28:18.214Z,14.72
2023-05-12T21:30:51.083Z,14.66
2023-05-12T21:33:23.950Z,14.61
2023-05-12T21:35:56.660Z,14.54
2023-05-12T21:38:29.344Z,14.49
2023-05-12T21:41:02.081Z,14.42
2023-05-12T21:43:36.382Z,14.37
2023-05-12T21:46:09.265Z,14.31
2023-05-12T21:48:42.067Z,14.25
2023-05-12T21:51:14.939Z,14.20
2023-05-12T21:53:47.649Z,14.15
2023-05-12T21:56:20.476Z,14.09
2023-05-12T21:58:54.504Z,14.05
2023-05-12T22:01:27.283Z,14.00
2023-05-12T22:04:00.167Z,13.95
2023-05-12T22:06:32.951Z,13.91
2023-05-12T22:09:05.919Z,13.87
2023-05-12T22:11:38.778Z,13.81
2023-05-12T22:14:12.881Z,13.78
2023-05-12T22:16:45.740Z,13.73
2023-05-12T22:19:18.406Z,13.69
2023-05-12T22:21:51.206Z,13.64
2023-05-12T22:24:23.891Z,13.58
2023-05-12T22:26:56.620Z,13.53
2023-05-12T22:29:31.070Z,13.49
2023-05-12T22:32:03.904Z,13.44
2023-05-12T22:34:36.594Z,13.44
2023-05-12T22:37:09.665Z,13.44
2023-05-12T22:39:42.353Z,13.46
2023-05-12T22:42:15.089Z,13.51
2023-05-12T22:44:49.288Z,13.57
2023-05-12T22:47:22.140Z,13.65
2023-05-12T22:49:54.886Z,13.71
2023-05-12T22:52:27.736Z,13.81
2023-05-12T22:55:00.449Z,13.89
2023-05-12T22:57:33.506Z,13.97
2023-05-12T23:00:09.775Z,14.05
2023-05-12T23:02:42.501Z,14.16
2023-05-12T23:05:15.937Z,14.25
2023-05-12T23:07:48.675Z,14.32
2023-05-12T23:10:21.684Z,14.43
2023-05-12T23:12:54.614Z,14.50
2023-05-12T23:15:28.894Z,14.60
2023-05-12T23:18:01.878Z,14.67
2023-05-12T23:20:35.068Z,14.75
2023-05-12T23:23:08.819Z,14.83
2023-05-12T23:25:42.899Z,14.92
2023-05-12T23:28:15.615Z,14.99
2023-05-12T23:30:49.642Z,15.07
2023-05-12T23:33:22.813Z,15.14
2023-05-12T23:35:55.903Z,15.20
2023-05-12T23:38:28.606Z,15.26
2023-05-12T23:41:01.227Z,15.34
2023-05-12T23:43:33.942Z,15.39
2023-05-12T23:46:08.108Z,15.45
2023-05-12T23:48:41.039Z,15.51
2023-05-12T23:51:14.008Z,15.58
2023-05-12T23:53:47.303Z,15.62
2023-05-12T23:56:19.941Z,15.66
2023-05-12T23:58:52.764Z,15.71
